sensor_id;sensor_type;location;lat;lon;timestamp;pressure;altitude;pressure_sealevel;temperature;humidity
81005;BME280;70472;47.592;17.640;2024-02-23T00:00:20;98091.66;;;10.67;72.67
81005;BME280;70472;47.592;17.640;2024-02-23T00:00:53;98092.25;;;10.69;72.93
81005;BME280;70472;47.592;17.640;2024-02-23T00:01:25;98095.97;;;10.68;72.98
81005;BME280;70472;47.592;17.640;2024-02-23T00:01:57;98088.75;;;10.69;72.78
81005;BME280;70472;47.592;17.640;2024-02-23T00:02:30;98089.97;;;10.66;73.71
81005;BME280;70472;47.592;17.640;2024-02-23T00:03:03;98095.34;;;10.66;74.44
81005;BME280;70472;47.592;17.640;2024-02-23T00:03:35;98097.00;;;10.67;73.37
81005;BME280;70472;47.592;17.640;2024-02-23T00:04:07;98088.78;;;10.62;75.02
81005;BME280;70472;47.592;17.640;2024-02-23T00:04:40;98088.34;;;10.65;75.17
81005;BME280;70472;47.592;17.640;2024-02-23T00:05:13;98088.38;;;10.59;75.20
81005;BME280;70472;47.592;17.640;2024-02-23T00:05:45;98083.25;;;10.57;75.46
81005;BME280;70472;47.592;17.640;2024-02-23T00:06:18;98088.84;;;10.49;74.70
81005;BME280;70472;47.592;17.640;2024-02-23T00:06:50;98086.34;;;10.54;75.07
81005;BME280;70472;47.592;17.640;2024-02-23T00:07:23;98094.41;;;10.54;74.46
81005;BME280;70472;47.592;17.640;2024-02-23T00:07:55;98085.13;;;10.57;74.85
81005;BME280;70472;47.592;17.640;2024-02-23T00:08:28;98083.84;;;10.59;74.82
81005;BME280;70472;47.592;17.640;2024-02-23T00:09:00;98085.72;;;10.59;75.08
81005;BME280;70472;47.592;17.640;2024-02-23T00:09:32;98087.84;;;10.50;74.79
81005;BME280;70472;47.592;17.640;2024-02-23T00:10:06;98083.94;;;10.46;74.67
81005;BME280;70472;47.592;17.640;2024-02-23T00:10:38;98093.78;;;10.52;75.41
81005;BME280;70472;47.592;17.640;2024-02-23T00:11:11;98095.66;;;10.52;75.96
81005;BME280;70472;47.592;17.640;2024-02-23T00:11:43;98090.06;;;10.53;75.63
81005;BME280;70472;47.592;17.640;2024-02-23T00:12:16;98099.25;;;10.39;75.13
81005;BME280;70472;47.592;17.640;2024-02-23T00:12:48;98082.53;;;10.43;74.97
81005;BME280;70472;47.592;17.640;2024-02-23T00:13:21;98083.94;;;10.46;75.71
81005;BME280;70472;47.592;17.640;2024-02-23T00:13:53;98073.44;;;10.45;75.04
81005;BME280;70472;47.592;17.640;2024-02-23T00:14:26;98087.44;;;10.47;75.89
81005;BME280;70472;47.592;17.640;2024-02-23T00:14:58;98078.75;;;10.51;74.74
81005;BME280;70472;47.592;17.640;2024-02-23T00:15:31;98085.53;;;10.54;74.63
81005;BME280;70472;47.592;17.640;2024-02-23T00:16:04;98080.84;;;10.42;75.50
81005;BME280;70472;47.592;17.640;2024-02-23T00:16:40;98084.75;;;10.47;74.18
81005;BME280;70472;47.592;17.640;2024-02-23T00:17:13;98087.41;;;10.53;74.57
81005;BME280;70472;47.592;17.640;2024-02-23T00:17:45;98083.66;;;10.54;75.50
81005;BME280;70472;47.592;17.640;2024-02-23T00:18:18;98099.56;;;10.56;74.45
81005;BME280;70472;47.592;17.640;2024-02-23T00:18:50;98083.47;;;10.56;74.56
81005;BME280;70472;47.592;17.640;2024-02-23T00:19:23;98083.25;;;10.57;74.31
81005;BME280;70472;47.592;17.640;2024-02-23T00:19:55;98078.94;;;10.56;75.21
81005;BME280;70472;47.592;17.640;2024-02-23T00:20:28;98079.94;;;10.55;75.63
81005;BME280;70472;47.592;17.640;2024-02-23T00:21:00;98092.16;;;10.51;76.77
81005;BME280;70472;47.592;17.640;2024-02-23T00:21:32;98082.25;;;10.52;76.35
81005;BME280;70472;47.592;17.640;2024-02-23T00:22:05;98088.63;;;10.57;74.37
81005;BME280;70472;47.592;17.640;2024-02-23T00:22:38;98083.25;;;10.57;74.49
81005;BME280;70472;47.592;17.640;2024-02-23T00:23:10;98086.53;;;10.59;75.52
81005;BME280;70472;47.592;17.640;2024-02-23T00:23:43;98079.94;;;10.55;74.18
81005;BME280;70472;47.592;17.640;2024-02-23T00:24:16;98089.44;;;10.58;73.88
81005;BME280;70472;47.592;17.640;2024-02-23T00:24:49;98076.44;;;10.61;75.26
81005;BME280;70472;47.592;17.640;2024-02-23T00:25:21;98081.97;;;10.60;74.64
81005;BME280;70472;47.592;17.640;2024-02-23T00:25:56;98091.88;;;10.59;74.10
81005;BME280;70472;47.592;17.640;2024-02-23T00:26:28;98067.00;;;10.52;74.90
81005;BME280;70472;47.592;17.640;2024-02-23T00:27:01;98089.84;;;10.55;74.83
81005;BME280;70472;47.592;17.640;2024-02-23T00:27:33;98075.63;;;10.54;74.61
81005;BME280;70472;47.592;17.640;2024-02-23T00:28:06;98085.94;;;10.57;75.52
81005;BME280;70472;47.592;17.640;2024-02-23T00:28:39;98076.84;;;10.58;76.04
81005;BME280;70472;47.592;17.640;2024-02-23T00:29:11;98079.31;;;10.60;75.01
81005;BME280;70472;47.592;17.640;2024-02-23T00:29:44;98087.56;;;10.58;76.37
81005;BME280;70472;47.592;17.640;2024-02-23T00:30:16;98083.66;;;10.54;77.32
81005;BME280;70472;47.592;17.640;2024-02-23T00:30:49;98077.97;;;10.44;76.14
81005;BME280;70472;47.592;17.640;2024-02-23T00:31:21;98076.31;;;10.43;76.18
81005;BME280;70472;47.592;17.640;2024-02-23T00:31:54;98082.31;;;10.45;75.11
81005;BME280;70472;47.592;17.640;2024-02-23T00:32:26;98081.03;;;10.48;76.17
81005;BME280;70472;47.592;17.640;2024-02-23T00:32:59;98083.06;;;10.52;76.73
81005;BME280;70472;47.592;17.640;2024-02-23T00:33:31;98077.94;;;10.51;75.15
81005;BME280;70472;47.592;17.640;2024-02-23T00:34:03;98082.25;;;10.52;76.23
81005;BME280;70472;47.592;17.640;2024-02-23T00:34:36;98080.00;;;10.49;75.20
81005;BME280;70472;47.592;17.640;2024-02-23T00:35:08;98066.81;;;10.47;75.82
81005;BME280;70472;47.592;17.640;2024-02-23T00:35:41;98068.63;;;10.53;75.45
81005;BME280;70472;47.592;17.640;2024-02-23T00:36:13;98082.47;;;10.50;76.32
81005;BME280;70472;47.592;17.640;2024-02-23T00:36:46;98083.06;;;10.52;75.86
81005;BME280;70472;47.592;17.640;2024-02-23T00:37:18;98074.81;;;10.54;76.77
81005;BME280;70472;47.592;17.640;2024-02-23T00:37:51;98076.06;;;10.51;76.89
81005;BME280;70472;47.592;17.640;2024-02-23T00:38:23;98070.31;;;10.48;77.89
81005;BME280;70472;47.592;17.640;2024-02-23T00:38:55;98074.84;;;10.47;76.05
81005;BME280;70472;47.592;17.640;2024-02-23T00:39:28;98079.81;;;10.50;77.28
81005;BME280;70472;47.592;17.640;2024-02-23T00:40:05;98071.13;;;10.48;77.15
81005;BME280;70472;47.592;17.640;2024-02-23T00:40:38;98075.72;;;10.41;77.39
81005;BME280;70472;47.592;17.640;2024-02-23T00:41:10;98072.41;;;10.46;75.83
81005;BME280;70472;47.592;17.640;2024-02-23T00:41:42;98077.72;;;10.52;76.00
81005;BME280;70472;47.592;17.640;2024-02-23T00:42:15;98076.03;;;10.58;75.75
81005;BME280;70472;47.592;17.640;2024-02-23T00:42:47;98074.38;;;10.57;76.51
81005;BME280;70472;47.592;17.640;2024-02-23T00:43:20;98038.72;;;10.56;76.05
81005;BME280;70472;47.592;17.640;2024-02-23T00:43:53;98076.91;;;10.52;75.96
81005;BME280;70472;47.592;17.640;2024-02-23T00:44:25;98067.84;;;10.46;75.55
81005;BME280;70472;47.592;17.640;2024-02-23T00:44:58;98061.84;;;10.51;76.75
81005;BME280;70472;47.592;17.640;2024-02-23T00:45:30;98064.94;;;10.48;77.46
81005;BME280;70472;47.592;17.640;2024-02-23T00:46:03;98081.44;;;10.51;76.02
81005;BME280;70472;47.592;17.640;2024-02-23T00:46:35;98064.91;;;10.54;74.94
81005;BME280;70472;47.592;17.640;2024-02-23T00:47:08;98068.81;;;10.58;75.07
81005;BME280;70472;47.592;17.640;2024-02-23T00:47:40;98053.75;;;10.57;75.99
81005;BME280;70472;47.592;17.640;2024-02-23T00:48:13;98063.66;;;10.57;75.52
81005;BME280;70472;47.592;17.640;2024-02-23T00:48:45;98061.59;;;10.59;75.60
81005;BME280;70472;47.592;17.640;2024-02-23T00:49:17;98055.81;;;10.62;75.96
81005;BME280;70472;47.592;17.640;2024-02-23T00:49:50;98067.75;;;10.59;75.28
81005;BME280;70472;47.592;17.640;2024-02-23T00:50:23;98057.44;;;10.63;74.71
81005;BME280;70472;47.592;17.640;2024-02-23T00:50:56;98047.53;;;10.63;76.09
81005;BME280;70472;47.592;17.640;2024-02-23T00:51:28;98059.34;;;10.56;76.86
81005;BME280;70472;47.592;17.640;2024-02-23T00:52:00;98070.88;;;10.56;75.71
81005;BME280;70472;47.592;17.640;2024-02-23T00:52:33;98067.75;;;10.59;76.85
81005;BME280;70472;47.592;17.640;2024-02-23T00:53:05;98072.31;;;10.59;77.13
81005;BME280;70472;47.592;17.640;2024-02-23T00:53:38;98055.41;;;10.58;77.26
81005;BME280;70472;47.592;17.640;2024-02-23T00:54:10;98062.84;;;10.56;77.03
81005;BME280;70472;47.592;17.640;2024-02-23T00:54:43;98071.50;;;10.58;77.54
81005;BME280;70472;47.592;17.640;2024-02-23T00:55:15;98069.84;;;10.57;78.08
81005;BME280;70472;47.592;17.640;2024-02-23T00:55:48;98069.84;;;10.57;77.31
81005;BME280;70472;47.592;17.640;2024-02-23T00:56:20;98057.84;;;10.60;77.85
81005;BME280;70472;47.592;17.640;2024-02-23T00:56:54;98072.91;;;10.61;78.49
81005;BME280;70472;47.592;17.640;2024-02-23T00:57:28;98057.03;;;10.59;77.26
81005;BME280;70472;47.592;17.640;2024-02-23T00:58:00;98063.25;;;10.53;77.68
81005;BME280;70472;47.592;17.640;2024-02-23T00:58:33;98071.09;;;10.55;78.01
81005;BME280;70472;47.592;17.640;2024-02-23T00:59:05;98058.91;;;10.59;76.70
81005;BME280;70472;47.592;17.640;2024-02-23T00:59:37;98060.75;;;10.58;76.37
81005;BME280;70472;47.592;17.640;2024-02-23T01:00:10;98068.00;;;10.58;76.75
81005;BME280;70472;47.592;17.640;2024-02-23T01:00:43;98081.41;;;10.58;77.86
81005;BME280;70472;47.592;17.640;2024-02-23T01:01:16;98067.81;;;10.53;78.26
81005;BME280;70472;47.592;17.640;2024-02-23T01:01:48;98061.19;;;10.55;78.49
81005;BME280;70472;47.592;17.640;2024-02-23T01:02:21;98064.91;;;10.54;77.05
81005;BME280;70472;47.592;17.640;2024-02-23T01:02:53;98070.75;;;10.45;76.82
81005;BME280;70472;47.592;17.640;2024-02-23T01:03:26;98074.03;;;10.47;76.95
81005;BME280;70472;47.592;17.640;2024-02-23T01:03:58;98065.34;;;10.51;77.45
81005;BME280;70472;47.592;17.640;2024-02-23T01:04:31;98057.09;;;10.53;77.59
81005;BME280;70472;47.592;17.640;2024-02-23T01:05:04;98070.25;;;10.54;77.62
81005;BME280;70472;47.592;17.640;2024-02-23T01:05:37;98059.34;;;10.56;77.79
81005;BME280;70472;47.592;17.640;2024-02-23T01:06:09;98064.59;;;10.44;78.30
81005;BME280;70472;47.592;17.640;2024-02-23T01:06:41;98055.28;;;10.47;77.52
81005;BME280;70472;47.592;17.640;2024-02-23T01:07:14;98065.19;;;10.46;77.57
81005;BME280;70472;47.592;17.640;2024-02-23T01:07:46;98069.13;;;10.43;77.44
81005;BME280;70472;47.592;17.640;2024-02-23T01:08:19;98056.69;;;10.49;78.05
81005;BME280;70472;47.592;17.640;2024-02-23T01:08:52;98062.50;;;10.46;77.91
81005;BME280;70472;47.592;17.640;2024-02-23T01:09:24;98072.78;;;10.49;78.24
81005;BME280;70472;47.592;17.640;2024-02-23T01:09:57;98061.69;;;10.46;78.89
81005;BME280;70472;47.592;17.640;2024-02-23T01:10:29;98054.28;;;10.41;78.39
81005;BME280;70472;47.592;17.640;2024-02-23T01:11:02;98055.72;;;10.43;79.55
81005;BME280;70472;47.592;17.640;2024-02-23T01:11:34;98062.09;;;10.42;78.69
81005;BME280;70472;47.592;17.640;2024-02-23T01:12:07;98046.00;;;10.42;78.22
81005;BME280;70472;47.592;17.640;2024-02-23T01:12:39;98059.22;;;10.44;78.47
81005;BME280;70472;47.592;17.640;2024-02-23T01:13:11;98054.69;;;10.45;79.13
81005;BME280;70472;47.592;17.640;2024-02-23T01:13:44;98054.22;;;10.48;79.00
81005;BME280;70472;47.592;17.640;2024-02-23T01:14:16;98050.56;;;10.42;79.27
81005;BME280;70472;47.592;17.640;2024-02-23T01:14:49;98056.53;;;10.44;78.60
81005;BME280;70472;47.592;17.640;2024-02-23T01:15:21;98063.53;;;10.45;79.91
81005;BME280;70472;47.592;17.640;2024-02-23T01:15:54;98062.53;;;10.39;79.87
81005;BME280;70472;47.592;17.640;2024-02-23T01:16:26;98059.22;;;10.37;79.98
81005;BME280;70472;47.592;17.640;2024-02-23T01:16:58;98059.47;;;10.36;79.66
81005;BME280;70472;47.592;17.640;2024-02-23T01:17:31;98065.63;;;10.36;80.30
81005;BME280;70472;47.592;17.640;2024-02-23T01:18:04;98062.75;;;10.38;79.59
81005;BME280;70472;47.592;17.640;2024-02-23T01:18:37;98059.84;;;10.39;79.86
81005;BME280;70472;47.592;17.640;2024-02-23T01:19:09;98058.41;;;10.43;79.48
81005;BME280;70472;47.592;17.640;2024-02-23T01:19:43;98061.09;;;10.37;79.94
81005;BME280;70472;47.592;17.640;2024-02-23T01:20:16;98056.97;;;10.41;80.32
81005;BME280;70472;47.592;17.640;2024-02-23T01:20:48;98054.50;;;10.39;80.11
81005;BME280;70472;47.592;17.640;2024-02-23T01:21:21;98047.28;;;10.40;79.96
81005;BME280;70472;47.592;17.640;2024-02-23T01:21:53;98055.72;;;10.43;79.91
81005;BME280;70472;47.592;17.640;2024-02-23T01:22:26;98050.19;;;10.38;79.72
81005;BME280;70472;47.592;17.640;2024-02-23T01:22:58;98067.13;;;10.32;79.73
81005;BME280;70472;47.592;17.640;2024-02-23T01:23:31;98039.50;;;10.32;79.49
81005;BME280;70472;47.592;17.640;2024-02-23T01:24:04;98045.84;;;10.37;79.30
81005;BME280;70472;47.592;17.640;2024-02-23T01:24:36;98046.06;;;10.36;80.58
81005;BME280;70472;47.592;17.640;2024-02-23T01:25:09;98039.66;;;10.37;80.98
81005;BME280;70472;47.592;17.640;2024-02-23T01:25:41;98042.34;;;10.37;80.41
81005;BME280;70472;47.592;17.640;2024-02-23T01:26:13;98042.34;;;10.37;81.74
81005;BME280;70472;47.592;17.640;2024-02-23T01:26:46;98041.50;;;10.36;80.39
81005;BME280;70472;47.592;17.640;2024-02-23T01:27:18;98050.22;;;10.32;80.00
81005;BME280;70472;47.592;17.640;2024-02-23T01:27:51;98047.38;;;10.27;79.98
81005;BME280;70472;47.592;17.640;2024-02-23T01:28:23;98034.56;;;10.29;79.26
81005;BME280;70472;47.592;17.640;2024-02-23T01:28:55;98038.88;;;10.30;79.84
81005;BME280;70472;47.592;17.640;2024-02-23T01:29:28;98048.19;;;10.27;80.24
81005;BME280;70472;47.592;17.640;2024-02-23T01:30:00;98042.38;;;10.30;80.26
81005;BME280;70472;47.592;17.640;2024-02-23T01:30:33;98040.75;;;10.29;80.25
81005;BME280;70472;47.592;17.640;2024-02-23T01:31:09;98037.44;;;10.34;79.86
81005;BME280;70472;47.592;17.640;2024-02-23T01:31:41;98040.28;;;10.39;79.89
81005;BME280;70472;47.592;17.640;2024-02-23T01:32:14;98040.69;;;10.36;80.50
81005;BME280;70472;47.592;17.640;2024-02-23T01:32:46;98037.66;;;10.32;80.63
81005;BME280;70472;47.592;17.640;2024-02-23T01:33:19;98037.44;;;10.34;80.37
81005;BME280;70472;47.592;17.640;2024-02-23T01:33:51;98029.59;;;10.32;81.66
81005;BME280;70472;47.592;17.640;2024-02-23T01:34:23;98037.66;;;10.32;81.21
81005;BME280;70472;47.592;17.640;2024-02-23T01:34:56;98034.16;;;10.25;80.85
81005;BME280;70472;47.592;17.640;2024-02-23T01:35:28;98034.78;;;10.27;80.96
81005;BME280;70472;47.592;17.640;2024-02-23T01:36:01;98032.69;;;10.29;81.30
81005;BME280;70472;47.592;17.640;2024-02-23T01:36:33;98037.66;;;10.26;81.81
81005;BME280;70472;47.592;17.640;2024-02-23T01:37:05;98029.63;;;10.26;81.00
81005;BME280;70472;47.592;17.640;2024-02-23T01:37:38;98028.41;;;10.22;81.42
81005;BME280;70472;47.592;17.640;2024-02-23T01:38:10;98027.78;;;10.20;80.82
81005;BME280;70472;47.592;17.640;2024-02-23T01:38:43;98039.09;;;10.28;80.55
81005;BME280;70472;47.592;17.640;2024-02-23T01:39:15;98030.03;;;10.29;80.79
81005;BME280;70472;47.592;17.640;2024-02-23T01:39:48;98032.16;;;10.14;81.72
81005;BME280;70472;47.592;17.640;2024-02-23T01:40:20;98029.47;;;10.14;81.49
81005;BME280;70472;47.592;17.640;2024-02-23T01:40:53;98027.19;;;10.17;81.83
81005;BME280;70472;47.592;17.640;2024-02-23T01:41:25;98028.81;;;10.25;81.71
81005;BME280;70472;47.592;17.640;2024-02-23T01:41:58;98033.16;;;10.26;81.32
81005;BME280;70472;47.592;17.640;2024-02-23T01:42:30;98031.31;;;10.20;81.82
81005;BME280;70472;47.592;17.640;2024-02-23T01:43:05;98030.91;;;10.16;82.90
81005;BME280;70472;47.592;17.640;2024-02-23T01:43:38;98024.72;;;10.16;82.65
81005;BME280;70472;47.592;17.640;2024-02-23T01:44:11;98028.44;;;10.15;81.87
81005;BME280;70472;47.592;17.640;2024-02-23T01:44:43;98030.69;;;10.18;82.33
81005;BME280;70472;47.592;17.640;2024-02-23T01:45:16;98031.72;;;10.24;81.75
81005;BME280;70472;47.592;17.640;2024-02-23T01:45:49;98028.41;;;10.22;82.63
81005;BME280;70472;47.592;17.640;2024-02-23T01:46:22;98028.00;;;10.18;82.22
81005;BME280;70472;47.592;17.640;2024-02-23T01:46:54;98035.03;;;10.12;81.57
81005;BME280;70472;47.592;17.640;2024-02-23T01:47:29;98019.78;;;10.13;82.05
81005;BME280;70472;47.592;17.640;2024-02-23T01:48:02;98025.53;;;10.16;82.54
81005;BME280;70472;47.592;17.640;2024-02-23T01:48:35;98022.41;;;10.20;82.56
81005;BME280;70472;47.592;17.640;2024-02-23T01:49:08;98021.81;;;10.17;83.01
81005;BME280;70472;47.592;17.640;2024-02-23T01:49:41;98029.63;;;10.19;83.04
81005;BME280;70472;47.592;17.640;2024-02-23T01:50:14;98029.44;;;10.21;83.18
81005;BME280;70472;47.592;17.640;2024-02-23T01:50:47;98018.13;;;10.12;82.68
81005;BME280;70472;47.592;17.640;2024-02-23T01:51:20;98016.09;;;10.14;82.92
81005;BME280;70472;47.592;17.640;2024-02-23T01:51:53;98013.78;;;10.17;84.10
81005;BME280;70472;47.592;17.640;2024-02-23T01:52:26;98025.94;;;10.20;83.30
81005;BME280;70472;47.592;17.640;2024-02-23T01:53:02;98022.00;;;10.23;83.99
81005;BME280;70472;47.592;17.640;2024-02-23T01:53:34;98025.72;;;10.22;83.41
81005;BME280;70472;47.592;17.640;2024-02-23T01:54:09;98017.69;;;10.22;81.98
81005;BME280;70472;47.592;17.640;2024-02-23T01:54:41;98016.44;;;10.24;82.61
81005;BME280;70472;47.592;17.640;2024-02-23T01:55:14;98019.75;;;10.26;83.66
81005;BME280;70472;47.592;17.640;2024-02-23T01:55:47;98018.53;;;10.15;83.84
81005;BME280;70472;47.592;17.640;2024-02-23T01:56:20;98011.38;;;10.09;82.98
81005;BME280;70472;47.592;17.640;2024-02-23T01:56:53;98027.81;;;10.13;82.54
81005;BME280;70472;47.592;17.640;2024-02-23T01:57:28;98023.03;;;10.22;83.26
81005;BME280;70472;47.592;17.640;2024-02-23T01:58:02;98025.94;;;10.27;83.79
81005;BME280;70472;47.592;17.640;2024-02-23T01:58:37;98023.84;;;10.22;83.30
81005;BME280;70472;47.592;17.640;2024-02-23T01:59:11;98017.38;;;10.05;83.49
81005;BME280;70472;47.592;17.640;2024-02-23T01:59:44;98013.41;;;10.14;83.67
81005;BME280;70472;47.592;17.640;2024-02-23T02:00:18;98017.06;;;10.20;83.52
81005;BME280;70472;47.592;17.640;2024-02-23T02:00:57;98016.03;;;10.21;82.95
81005;BME280;70472;47.592;17.640;2024-02-23T02:01:31;98019.31;;;10.23;82.13
81005;BME280;70472;47.592;17.640;2024-02-23T02:02:04;98031.28;;;10.27;82.00
81005;BME280;70472;47.592;17.640;2024-02-23T02:02:39;98009.63;;;10.22;82.48
81005;BME280;70472;47.592;17.640;2024-02-23T02:03:11;98023.03;;;10.22;82.45
81005;BME280;70472;47.592;17.640;2024-02-23T02:03:44;98023.47;;;10.18;82.19
81005;BME280;70472;47.592;17.640;2024-02-23T02:04:16;98023.03;;;10.22;81.43
81005;BME280;70472;47.592;17.640;2024-02-23T02:04:48;98021.00;;;10.24;81.54
81005;BME280;70472;47.592;17.640;2024-02-23T02:05:21;98030.03;;;10.23;81.87
81005;BME280;70472;47.592;17.640;2024-02-23T02:05:54;98023.25;;;10.27;81.31
81005;BME280;70472;47.592;17.640;2024-02-23T02:06:27;98017.66;;;10.28;82.22
81005;BME280;70472;47.592;17.640;2024-02-23T02:07:00;98027.13;;;10.31;82.95
81005;BME280;70472;47.592;17.640;2024-02-23T02:07:33;98015.38;;;10.32;83.33
81005;BME280;70472;47.592;17.640;2024-02-23T02:08:06;98035.16;;;10.31;83.02
81005;BME280;70472;47.592;17.640;2024-02-23T02:08:39;98016.81;;;10.34;82.34
81005;BME280;70472;47.592;17.640;2024-02-23T02:09:11;98023.03;;;10.28;82.58
81005;BME280;70472;47.592;17.640;2024-02-23T02:09:43;98023.44;;;10.25;82.33
81005;BME280;70472;47.592;17.640;2024-02-23T02:10:17;98033.16;;;10.26;81.59
81005;BME280;70472;47.592;17.640;2024-02-23T02:10:50;98017.25;;;10.25;82.31
81005;BME280;70472;47.592;17.640;2024-02-23T02:11:22;98025.75;;;10.15;83.02
81005;BME280;70472;47.592;17.640;2024-02-23T02:11:55;98021.03;;;10.10;82.40
81005;BME280;70472;47.592;17.640;2024-02-23T02:12:28;98028.84;;;10.12;81.65
81005;BME280;70472;47.592;17.640;2024-02-23T02:13:05;98014.66;;;10.11;82.11
81005;BME280;70472;47.592;17.640;2024-02-23T02:13:37;98027.41;;;10.16;81.88
81005;BME280;70472;47.592;17.640;2024-02-23T02:14:10;98023.94;;;10.09;81.84
81005;BME280;70472;47.592;17.640;2024-02-23T02:14:42;98024.94;;;10.14;81.93
81005;BME280;70472;47.592;17.640;2024-02-23T02:15:14;98029.69;;;10.12;82.24
81005;BME280;70472;47.592;17.640;2024-02-23T02:15:47;98023.09;;;10.15;82.36
81005;BME280;70472;47.592;17.640;2024-02-23T02:16:19;98029.13;;;10.04;81.70
81005;BME280;70472;47.592;17.640;2024-02-23T02:16:52;98024.75;;;10.09;80.67
81005;BME280;70472;47.592;17.640;2024-02-23T02:17:24;98020.88;;;10.05;81.55
81005;BME280;70472;47.592;17.640;2024-02-23T02:17:57;98025.59;;;10.10;81.86
81005;BME280;70472;47.592;17.640;2024-02-23T02:18:29;98029.69;;;10.12;79.95
81005;BME280;70472;47.592;17.640;2024-02-23T02:19:01;98026.41;;;10.10;81.23
81005;BME280;70472;47.592;17.640;2024-02-23T02:19:34;98024.53;;;10.11;80.19
81005;BME280;70472;47.592;17.640;2024-02-23T02:20:11;98035.03;;;10.12;81.59
81005;BME280;70472;47.592;17.640;2024-02-23T02:20:53;98020.59;;;10.13;80.83
81005;BME280;70472;47.592;17.640;2024-02-23T02:21:26;98022.69;;;10.11;81.26
81005;BME280;70472;47.592;17.640;2024-02-23T02:21:59;98019.38;;;10.16;81.42
81005;BME280;70472;47.592;17.640;2024-02-23T02:22:34;98023.03;;;10.22;80.13
81005;BME280;70472;47.592;17.640;2024-02-23T02:23:07;98034.56;;;10.22;80.37
81005;BME280;70472;47.592;17.640;2024-02-23T02:23:39;98026.75;;;10.21;80.35
81005;BME280;70472;47.592;17.640;2024-02-23T02:24:12;98026.94;;;10.19;81.13
81005;BME280;70472;47.592;17.640;2024-02-23T02:24:45;98019.00;;;10.06;80.61
81005;BME280;70472;47.592;17.640;2024-02-23T02:25:18;98022.94;;;10.03;81.19
81005;BME280;70472;47.592;17.640;2024-02-23T02:25:57;98025.19;;;10.06;80.48
81005;BME280;70472;47.592;17.640;2024-02-23T02:26:34;98026.81;;;10.07;81.19
81005;BME280;70472;47.592;17.640;2024-02-23T02:27:07;98020.44;;;10.08;79.93
81005;BME280;70472;47.592;17.640;2024-02-23T02:27:39;98025.00;;;10.01;80.58
81005;BME280;70472;47.592;17.640;2024-02-23T02:28:11;98021.91;;;10.04;80.75
81005;BME280;70472;47.592;17.640;2024-02-23T02:28:44;98025.41;;;10.05;81.07
81005;BME280;70472;47.592;17.640;2024-02-23T02:29:16;98025.59;;;10.10;80.43
81005;BME280;70472;47.592;17.640;2024-02-23T02:29:50;98029.09;;;10.10;81.13
81005;BME280;70472;47.592;17.640;2024-02-23T02:30:23;98020.22;;;10.10;81.23
81005;BME280;70472;47.592;17.640;2024-02-23T02:30:56;98017.31;;;10.11;80.84
81005;BME280;70472;47.592;17.640;2024-02-23T02:31:28;98024.94;;;10.08;80.08
81005;BME280;70472;47.592;17.640;2024-02-23T02:32:00;98012.00;;;10.05;79.87
81005;BME280;70472;47.592;17.640;2024-02-23T02:32:33;98019.59;;;10.08;80.57
81005;BME280;70472;47.592;17.640;2024-02-23T02:33:06;98021.88;;;10.11;81.32
81005;BME280;70472;47.592;17.640;2024-02-23T02:33:40;98015.50;;;10.05;80.06
81005;BME280;70472;47.592;17.640;2024-02-23T02:34:13;98015.09;;;10.08;80.46
81005;BME280;70472;47.592;17.640;2024-02-23T02:34:45;98014.88;;;10.10;80.62
81005;BME280;70472;47.592;17.640;2024-02-23T02:35:18;98025.38;;;10.11;80.48
81005;BME280;70472;47.592;17.640;2024-02-23T02:35:50;98017.72;;;10.15;80.27
81005;BME280;70472;47.592;17.640;2024-02-23T02:36:22;98022.69;;;10.11;80.79
81005;BME280;70472;47.592;17.640;2024-02-23T02:36:55;98027.44;;;10.09;79.90
81005;BME280;70472;47.592;17.640;2024-02-23T02:37:28;98025.59;;;10.10;79.21
81005;BME280;70472;47.592;17.640;2024-02-23T02:38:00;98024.75;;;10.09;78.79
81005;BME280;70472;47.592;17.640;2024-02-23T02:38:33;98024.53;;;10.11;79.26
81005;BME280;70472;47.592;17.640;2024-02-23T02:39:05;98009.28;;;10.11;78.52
81005;BME280;70472;47.592;17.640;2024-02-23T02:39:39;98017.13;;;10.06;78.64
81005;BME280;70472;47.592;17.640;2024-02-23T02:40:11;98017.59;;;10.03;78.88
81005;BME280;70472;47.592;17.640;2024-02-23T02:40:44;98022.13;;;10.03;79.03
81005;BME280;70472;47.592;17.640;2024-02-23T02:41:18;98017.38;;;10.05;78.94
81005;BME280;70472;47.592;17.640;2024-02-23T02:41:51;98019.41;;;10.09;78.06
81005;BME280;70472;47.592;17.640;2024-02-23T02:42:23;98016.91;;;10.14;79.39
81005;BME280;70472;47.592;17.640;2024-02-23T02:42:56;98016.91;;;10.14;79.16
81005;BME280;70472;47.592;17.640;2024-02-23T02:43:28;98007.66;;;10.10;79.47
81005;BME280;70472;47.592;17.640;2024-02-23T02:44:01;98011.56;;;10.14;79.63
81005;BME280;70472;47.592;17.640;2024-02-23T02:44:33;98016.09;;;10.14;79.38
81005;BME280;70472;47.592;17.640;2024-02-23T02:45:06;98017.97;;;10.07;78.48
81005;BME280;70472;47.592;17.640;2024-02-23T02:45:38;98011.38;;;10.09;78.94
81005;BME280;70472;47.592;17.640;2024-02-23T02:46:11;98017.78;;;10.08;78.58
81005;BME280;70472;47.592;17.640;2024-02-23T02:46:43;98013.22;;;10.09;78.89
81005;BME280;70472;47.592;17.640;2024-02-23T02:47:16;98009.88;;;10.13;77.98
81005;BME280;70472;47.592;17.640;2024-02-23T02:47:48;98012.16;;;10.16;78.71
81005;BME280;70472;47.592;17.640;2024-02-23T02:48:21;98018.09;;;10.18;79.00
81005;BME280;70472;47.592;17.640;2024-02-23T02:48:53;98014.22;;;10.14;78.17
81005;BME280;70472;47.592;17.640;2024-02-23T02:49:25;98014.22;;;10.14;76.92
81005;BME280;70472;47.592;17.640;2024-02-23T02:49:58;98011.69;;;10.20;77.31
81005;BME280;70472;47.592;17.640;2024-02-23T02:50:31;98014.38;;;10.20;78.11
81005;BME280;70472;47.592;17.640;2024-02-23T02:51:04;98024.69;;;10.23;77.99
81005;BME280;70472;47.592;17.640;2024-02-23T02:51:36;98017.69;;;10.22;77.42